createdAt,value
2019-04-16T00:03:00.000Z,99199
2019-04-16T00:08:00.000Z,99192
2019-04-16T00:13:00.000Z,99185
2019-04-16T00:18:00.000Z,99182
2019-04-16T00:23:00.000Z,99174
2019-04-16T00:28:00.000Z,99177
2019-04-16T00:33:00.000Z,99170
2019-04-16T00:38:00.000Z,99166
2019-04-16T00:43:00.000Z,99167
2019-04-16T00:48:00.000Z,99157
2019-04-16T00:53:00.000Z,99168
2019-04-16T00:58:00.000Z,99169
2019-04-16T01:03:00.000Z,99155
2019-04-16T01:08:00.000Z,99156
2019-04-16T01:13:00.000Z,99161
2019-04-16T01:18:00.000Z,99160
2019-04-16T01:23:00.000Z,99146
2019-04-16T01:28:00.000Z,99149
2019-04-16T01:34:00.000Z,99144
2019-04-16T01:39:00.000Z,99134
2019-04-16T01:44:00.000Z,99126
2019-04-16T01:49:00.000Z,99133
2019-04-16T01:54:00.000Z,99126
2019-04-16T01:59:00.000Z,99118
2019-04-16T02:04:00.000Z,99133
2019-04-16T02:09:00.000Z,99129
2019-04-16T02:14:00.000Z,99135
2019-04-16T02:19:00.000Z,99137
2019-04-16T02:24:00.000Z,99137
2019-04-16T02:29:00.000Z,99132
2019-04-16T02:34:00.000Z,99125
2019-04-16T02:39:00.000Z,99119
2019-04-16T02:44:00.000Z,99124
2019-04-16T02:49:00.000Z,99126
2019-04-16T02:54:00.000Z,99119
2019-04-16T02:59:00.000Z,99119
2019-04-16T03:04:00.000Z,99117
2019-04-16T03:10:00.000Z,99119
2019-04-16T03:15:00.000Z,99126
2019-04-16T03:20:00.000Z,99129
2019-04-16T03:25:00.000Z,99130
2019-04-16T03:30:00.000Z,99120
2019-04-16T03:35:00.000Z,99123
2019-04-16T03:40:00.000Z,99110
2019-04-16T03:45:00.000Z,99117
2019-04-16T03:50:00.000Z,99118
2019-04-16T03:55:00.000Z,99117
2019-04-16T04:00:00.000Z,99116
2019-04-16T04:05:00.000Z,99118
2019-04-16T04:10:00.000Z,99124
2019-04-16T04:15:00.000Z,99120
2019-04-16T04:20:00.000Z,99129
2019-04-16T04:25:00.000Z,99135
2019-04-16T04:30:00.000Z,99130
2019-04-16T04:35:00.000Z,99147
2019-04-16T04:40:00.000Z,99140
2019-04-16T04:45:00.000Z,99157
2019-04-16T04:50:00.000Z,99152
2019-04-16T04:55:00.000Z,99172
2019-04-16T05:00:00.000Z,99184
2019-04-16T05:05:00.000Z,99182
2019-04-16T05:10:00.000Z,99177
2019-04-16T05:16:00.000Z,99182
2019-04-16T05:21:00.000Z,99198
2019-04-16T05:26:00.000Z,99189
2019-04-16T05:31:00.000Z,99199
2019-04-16T05:36:00.000Z,99200
2019-04-16T05:41:00.000Z,99205
2019-04-16T05:46:00.000Z,99215
2019-04-16T05:51:00.000Z,99202
2019-04-16T05:56:00.000Z,99208
2019-04-16T06:01:00.000Z,99204
2019-04-16T06:06:00.000Z,99204
2019-04-16T06:11:00.000Z,99205
2019-04-16T06:16:00.000Z,99207
2019-04-16T06:21:00.000Z,99200
2019-04-16T06:26:00.000Z,99200
2019-04-16T06:31:00.000Z,99202
2019-04-16T06:36:00.000Z,99193
2019-04-16T06:41:00.000Z,99180
2019-04-16T06:46:00.000Z,99184
2019-04-16T06:51:00.000Z,99195
2019-04-16T06:56:00.000Z,99190
2019-04-16T07:01:00.000Z,99195
2019-04-16T07:06:00.000Z,99199
2019-04-16T07:11:00.000Z,99205
2019-04-16T07:16:00.000Z,99208
2019-04-16T07:22:00.000Z,99204
2019-04-16T07:27:00.000Z,99209
2019-04-16T07:32:00.000Z,99207
2019-04-16T07:37:00.000Z,99206
2019-04-16T07:42:00.000Z,99205
2019-04-16T07:47:00.000Z,99214
2019-04-16T07:52:00.000Z,99199
2019-04-16T07:57:00.000Z,99210
2019-04-16T08:02:00.000Z,99209
2019-04-16T08:07:00.000Z,99207
2019-04-16T08:12:00.000Z,99209
2019-04-16T08:17:00.000Z,99209
2019-04-16T08:22:00.000Z,99210
2019-04-16T08:27:00.000Z,99221
2019-04-16T08:32:00.000Z,99214
2019-04-16T08:37:00.000Z,99218
2019-04-16T08:42:00.000Z,99220
2019-04-16T08:47:00.000Z,99220
2019-04-16T08:52:00.000Z,99210
2019-04-16T08:57:00.000Z,99210
2019-04-16T09:02:00.000Z,99216
2019-04-16T09:07:00.000Z,99205
2019-04-16T09:13:00.000Z,99206
2019-04-16T09:18:00.000Z,99208
2019-04-16T09:23:00.000Z,99207
2019-04-16T09:28:00.000Z,99207
2019-04-16T09:33:00.000Z,99208
2019-04-16T09:38:00.000Z,99201
2019-04-16T09:43:00.000Z,99199
2019-04-16T09:48:00.000Z,99204
2019-04-16T09:53:00.000Z,99199
2019-04-16T09:58:00.000Z,99202
2019-04-16T10:03:00.000Z,99198
2019-04-16T10:08:00.000Z,99194
2019-04-16T10:13:00.000Z,99201
2019-04-16T10:18:00.000Z,99204
2019-04-16T10:23:00.000Z,99203
2019-04-16T10:28:00.000Z,99203
2019-04-16T10:33:00.000Z,99198
2019-04-16T10:38:00.000Z,99186
2019-04-16T10:43:00.000Z,99184
2019-04-16T10:48:00.000Z,99171
2019-04-16T10:53:00.000Z,99174
2019-04-16T10:58:00.000Z,99182
2019-04-16T11:03:00.000Z,99181
2019-04-16T11:08:00.000Z,99169
2019-04-16T11:13:00.000Z,99166
2019-04-16T11:19:00.000Z,99160
2019-04-16T11:24:00.000Z,99159
2019-04-16T11:29:00.000Z,99149
2019-04-16T11:34:00.000Z,99164
2019-04-16T11:39:00.000Z,99159
2019-04-16T11:44:00.000Z,99147
2019-04-16T11:49:00.000Z,99143
2019-04-16T11:54:00.000Z,99141
2019-04-16T11:59:00.000Z,99135
2019-04-16T12:04:00.000Z,99144
2019-04-16T12:09:00.000Z,99135
2019-04-16T12:14:00.000Z,99131
2019-04-16T12:19:00.000Z,99125
2019-04-16T12:24:00.000Z,99119
2019-04-16T12:29:00.000Z,99117
2019-04-16T12:34:00.000Z,99114
2019-04-16T12:39:00.000Z,99113
2019-04-16T12:44:00.000Z,99095
2019-04-16T12:49:00.000Z,99100
2019-04-16T12:54:00.000Z,99118
2019-04-16T12:59:00.000Z,99099
2019-04-16T13:04:00.000Z,99101
2019-04-16T13:09:00.000Z,99103
2019-04-16T13:14:00.000Z,99092
2019-04-16T13:20:00.000Z,99095
2019-04-16T13:25:00.000Z,99089
2019-04-16T13:30:00.000Z,99082
2019-04-16T13:35:00.000Z,99086
2019-04-16T13:40:00.000Z,99078
2019-04-16T13:45:00.000Z,99076
2019-04-16T13:50:00.000Z,99075
2019-04-16T13:55:00.000Z,99068
2019-04-16T14:00:00.000Z,99063
2019-04-16T14:05:00.000Z,99061
2019-04-16T14:10:00.000Z,99065
2019-04-16T14:15:00.000Z,99061
2019-04-16T14:20:00.000Z,99058
2019-04-16T14:25:00.000Z,99054
2019-04-16T14:30:00.000Z,99046
2019-04-16T14:35:00.000Z,99056
2019-04-16T14:40:00.000Z,99057
2019-04-16T14:45:00.000Z,99054
2019-04-16T14:51:00.000Z,99051
2019-04-16T14:56:00.000Z,99042
2019-04-16T15:01:00.000Z,99041
2019-04-16T15:06:00.000Z,99034
2019-04-16T15:11:00.000Z,99032
2019-04-16T15:16:00.000Z,99034
2019-04-16T15:21:00.000Z,99037
2019-04-16T15:26:00.000Z,99041
2019-04-16T15:31:00.000Z,99033
2019-04-16T15:36:00.000Z,99033
2019-04-16T15:41:00.000Z,99032
2019-04-16T15:46:00.000Z,99034
2019-04-16T15:51:00.000Z,99032
2019-04-16T15:56:00.000Z,99036
2019-04-16T16:01:00.000Z,99020
2019-04-16T16:06:00.000Z,99030
2019-04-16T16:11:00.000Z,99035
2019-04-16T16:16:00.000Z,99030
2019-04-16T16:21:00.000Z,99036
2019-04-16T16:26:00.000Z,99038
2019-04-16T16:31:00.000Z,99045
2019-04-16T16:36:00.000Z,99046
2019-04-16T16:41:00.000Z,99047
2019-04-16T16:46:00.000Z,99049
2019-04-16T16:51:00.000Z,99051
2019-04-16T16:56:00.000Z,99055
2019-04-16T17:02:00.000Z,99057
2019-04-16T17:07:00.000Z,99054
2019-04-16T17:12:00.000Z,99055
2019-04-16T17:17:00.000Z,99068
2019-04-16T17:22:00.000Z,99061
2019-04-16T17:27:00.000Z,99065
2019-04-16T17:32:00.000Z,99068
2019-04-16T17:37:00.000Z,99072
2019-04-16T17:42:00.000Z,99077
2019-04-16T17:47:00.000Z,99076
2019-04-16T17:52:00.000Z,99082
2019-04-16T17:57:00.000Z,99083
2019-04-16T18:02:00.000Z,99094
2019-04-16T18:07:00.000Z,99097
2019-04-16T18:12:00.000Z,99100
2019-04-16T18:17:00.000Z,99101
2019-04-16T18:22:00.000Z,99109
2019-04-16T18:27:00.000Z,99117
2019-04-16T18:32:00.000Z,99118
2019-04-16T18:37:00.000Z,99118
2019-04-16T18:42:00.000Z,99128
2019-04-16T18:47:00.000Z,99133
2019-04-16T18:53:00.000Z,99132
2019-04-16T18:58:00.000Z,99143
2019-04-16T19:03:00.000Z,99143
2019-04-16T19:08:00.000Z,99149
2019-04-16T19:13:00.000Z,99162
2019-04-16T19:18:00.000Z,99157
2019-04-16T19:23:00.000Z,99172
2019-04-16T19:28:00.000Z,99156
2019-04-16T19:33:00.000Z,99174
2019-04-16T19:38:00.000Z,99168
2019-04-16T19:43:00.000Z,99167
2019-04-16T19:48:00.000Z,99175
2019-04-16T19:53:00.000Z,99176
2019-04-16T19:58:00.000Z,99185
2019-04-16T20:03:00.000Z,99189
2019-04-16T20:08:00.000Z,99188
2019-04-16T20:13:00.000Z,99182
2019-04-16T20:18:00.000Z,99187
2019-04-16T20:23:00.000Z,99187
2019-04-16T20:28:00.000Z,99189
2019-04-16T20:33:00.000Z,99196
2019-04-16T20:38:00.000Z,99187
2019-04-16T20:43:00.000Z,99187
2019-04-16T20:48:00.000Z,99199
2019-04-16T20:54:00.000Z,99200
2019-04-16T20:59:00.000Z,99198
2019-04-16T21:04:00.000Z,99207
2019-04-16T21:09:00.000Z,99213
2019-04-16T21:14:00.000Z,99208
2019-04-16T21:19:00.000Z,99210
2019-04-16T21:24:00.000Z,99218
2019-04-16T21:29:00.000Z,99222
2019-04-16T21:34:00.000Z,99221
2019-04-16T21:39:00.000Z,99222
2019-04-16T21:44:00.000Z,99220
2019-04-16T21:49:00.000Z,99214
2019-04-16T21:54:00.000Z,99222
2019-04-16T21:59:00.000Z,99220
2019-04-16T22:04:00.000Z,99227
2019-04-16T22:09:00.000Z,99222
2019-04-16T22:14:00.000Z,99218
2019-04-16T22:19:00.000Z,99220
2019-04-16T22:25:00.000Z,99218
2019-04-16T22:30:00.000Z,99223
2019-04-16T22:35:00.000Z,99214
2019-04-16T22:40:00.000Z,99214
2019-04-16T22:45:00.000Z,99220
2019-04-16T22:50:00.000Z,99219
2019-04-16T22:55:00.000Z,99215
2019-04-16T23:00:00.000Z,99217
2019-04-16T23:05:00.000Z,99218
2019-04-16T23:10:00.000Z,99217
2019-04-16T23:15:00.000Z,99208
2019-04-16T23:20:00.000Z,99212
2019-04-16T23:25:00.000Z,99216
2019-04-16T23:30:00.000Z,99216
2019-04-16T23:35:00.000Z,99213
2019-04-16T23:40:00.000Z,99211
2019-04-16T23:45:00.000Z,99223
2019-04-16T23:50:00.000Z,99219
2019-04-16T23:55:00.000Z,99222
